Terminal Aerodrome Forecast
Issued by NWS Goodland, KS

Home | Current Version | Previous Version | Text Only | Print | Product List | Glossary On
Versions: 1 2 3 4 5 6 7 8 9 10 11 12 13 14 15 16 17 18 19 20 21 22
000
FTUS43 KGLD 181612 AAC
TAFGLD
TAF AMD
KGLD 181612Z 1816/1912 VRB05KT 1/2SM FG OVC003
     FM181700 25006KT P6SM OVC007
      TEMPO 1817/1818 1SM BR OVC003
     FM181800 24006KT P6SM BKN015
     FM182000 30006KT P6SM BKN035=

USA.gov is the U.S. government's official web portal to all federal, state and local government web resources and services.